Time;durP1;ratioP1;P1;durP2;ratioP2;P2;SDS_P1;SDS_P2;PMS_P1;PMS_P2;Temp;Humidity;BMP_temperature;BMP_pressure;BME280_temperature;BME280_humidity;BME280_pressure;Samples;Min_cycle;Max_cycle;Signal;HPM_P1;HPM_P2
2021/12/15 00:01:12;;;;;;;18.93;10.73;;;7.20;99.90;7.10;101751.00;;;;4997762;27;122654;-70
2021/12/15 00:03:38;;;;;;;22.10;11.43;;;7.20;99.90;7.10;101750.00;;;;5015086;27;92796;-70
2021/12/15 00:06:11;;;;;;;20.33;9.73;;;7.20;99.90;7.10;101745.00;;;;4996611;27;92029;-70
2021/12/15 00:08:38;;;;;;;16.57;11.10;;;7.20;99.90;7.10;101754.00;;;;5015765;27;93051;-70
2021/12/15 00:11:04;;;;;;;22.80;11.30;;;7.20;99.90;7.10;101754.00;;;;5028681;27;93985;-72
2021/12/15 00:13:31;;;;;;;26.13;11.53;;;7.20;99.90;7.10;101751.00;;;;5034032;27;93515;-72
2021/12/15 00:15:56;;;;;;;22.20;11.00;;;7.20;99.90;7.10;101749.00;;;;5034225;27;92831;-72
2021/12/15 00:18:22;;;;;;;21.43;11.53;;;7.20;99.90;7.10;101748.00;;;;5034197;27;109871;-72
2021/12/15 00:20:48;;;;;;;18.30;11.00;;;7.40;99.90;7.10;101746.00;;;;5034365;27;93088;-73
2021/12/15 00:23:14;;;;;;;19.80;11.13;;;7.30;99.90;7.10;101748.00;;;;5033815;27;109529;-70
2021/12/15 00:25:42;;;;;;;21.80;12.10;;;7.20;99.90;7.10;101746.00;;;;5034413;27;107748;-73
2021/12/15 00:28:09;;;;;;;24.83;12.07;;;7.20;99.90;7.10;101750.00;;;;5015153;27;93178;-69
2021/12/15 00:30:37;;;;;;;19.90;10.57;;;7.30;99.90;7.10;101738.00;;;;5016399;27;92313;-72
2021/12/15 00:33:04;;;;;;;18.37;9.30;;;7.30;99.90;7.10;101742.00;;;;5033180;27;94256;-70
2021/12/15 00:35:30;;;;;;;20.57;11.07;;;7.30;99.90;7.10;101745.00;;;;5034069;27;96141;-71
2021/12/15 00:37:55;;;;;;;18.77;10.37;;;7.20;99.90;7.10;101751.00;;;;5033069;27;99305;-72
2021/12/15 00:40:24;;;;;;;17.40;10.57;;;7.20;99.90;7.10;101757.00;;;;5032901;27;123232;-72
2021/12/15 00:42:50;;;;;;;17.13;9.40;;;7.30;99.90;7.20;101760.00;;;;5034104;27;93050;-72
2021/12/15 00:45:16;;;;;;;16.10;8.90;;;7.30;99.90;7.20;101759.00;;;;5015319;27;92894;-72
2021/12/15 00:47:44;;;;;;;20.80;10.17;;;7.30;99.90;7.20;101765.00;;;;5033569;27;107918;-72
2021/12/15 00:50:15;;;;;;;17.87;10.03;;;7.30;99.90;7.20;101765.00;;;;5034159;27;92719;-72
2021/12/15 00:52:43;;;;;;;15.20;9.33;;;7.30;99.90;7.20;101769.00;;;;5014535;27;93272;-72
2021/12/15 00:55:14;;;;;;;19.07;9.93;;;7.10;99.90;7.20;101770.00;;;;5035733;27;92131;-72
2021/12/15 00:57:40;;;;;;;21.27;11.47;;;7.30;99.90;7.20;101782.00;;;;5012898;27;105310;-71
2021/12/15 01:00:12;;;;;;;22.47;10.70;;;7.40;99.90;7.20;101767.00;;;;5033251;27;123216;-72
2021/12/15 01:02:37;;;;;;;19.07;10.10;;;7.40;99.90;7.30;101779.00;;;;5012909;27;93741;-72
2021/12/15 01:05:06;;;;;;;17.13;9.33;;;7.30;99.90;7.30;101775.00;;;;5033250;27;104077;-72
2021/12/15 01:07:32;;;;;;;20.83;10.77;;;7.40;99.90;7.30;101782.00;;;;5034254;27;93756;-71
2021/12/15 01:09:59;;;;;;;19.67;10.03;;;7.40;99.90;7.30;101787.00;;;;5033682;27;97973;-71
2021/12/15 01:20:50;;;;;;;18.90;10.87;;;7.30;99.90;7.20;101785.00;;;;5011425;27;92611;-71
2021/12/15 01:23:21;;;;;;;16.27;10.23;;;7.40;99.90;7.20;101784.00;;;;5013351;27;93063;-71
2021/12/15 01:25:59;;;;;;;17.43;9.47;;;7.30;99.90;7.20;101782.00;;;;5013777;27;92794;-72
2021/12/15 01:28:26;;;;;;;16.27;9.47;;;7.40;99.90;7.20;101773.00;;;;5008167;27;94131;-71
2021/12/15 01:30:54;;;;;;;16.43;10.13;;;7.30;99.90;7.20;101775.00;;;;5034246;27;94398;-71
2021/12/15 01:33:23;;;;;;;20.50;9.87;;;7.30;99.90;7.20;101766.00;;;;5033029;27;92966;-72
2021/12/15 01:35:50;;;;;;;19.70;10.43;;;7.40;99.90;7.20;101774.00;;;;4998331;27;93704;-72
2021/12/15 01:38:20;;;;;;;22.87;11.13;;;7.30;99.90;7.20;101765.00;;;;4996840;27;95112;-72
2021/12/15 01:40:47;;;;;;;17.13;10.17;;;7.40;99.90;7.20;101770.00;;;;5033186;27;109094;-73
2021/12/15 01:43:35;;;;;;;17.23;10.23;;;7.30;99.90;7.20;101776.00;;;;5032532;27;92971;-72
2021/12/15 01:49:05;;;;;;;12.17;7.60;;;7.30;99.90;7.10;101764.00;;;;5013054;27;92958;-69
2021/12/15 01:51:31;;;;;;;21.23;10.53;;;7.30;99.90;7.10;101769.00;;;;5014841;27;92795;-69
2021/12/15 01:53:58;;;;;;;19.77;9.23;;;7.30;99.90;7.20;101764.00;;;;5012060;27;104062;-69
2021/12/15 01:56:24;;;;;;;20.80;9.60;;;7.30;99.90;7.20;101763.00;;;;5015015;27;92739;-69
2021/12/15 01:58:51;;;;;;;20.10;9.87;;;7.30;99.90;7.20;101772.00;;;;5012985;27;93911;-69
2021/12/15 02:01:18;;;;;;;24.03;11.47;;;7.30;99.90;7.20;101765.00;;;;5013831;27;94195;-69
2021/12/15 02:03:43;;;;;;;13.57;7.77;;;7.30;99.90;7.20;101769.00;;;;5013058;27;97169;-70
2021/12/15 02:06:11;;;;;;;27.20;10.77;;;7.30;99.90;7.20;101779.00;;;;5022469;27;92907;-70
2021/12/15 02:08:37;;;;;;;25.30;10.27;;;7.30;99.90;7.10;101770.00;;;;5032667;27;93895;-70
2021/12/15 02:11:04;;;;;;;15.33;9.00;;;7.60;99.90;7.10;101764.00;;;;5033260;27;92991;-69
2021/12/15 02:13:30;;;;;;;19.87;9.93;;;7.30;99.90;7.10;101776.00;;;;5013858;27;93077;-68
2021/12/15 02:15:59;;;;;;;16.83;9.40;;;7.30;99.90;7.10;101767.00;;;;5015782;27;93042;-70
2021/12/15 02:18:30;;;;;;;17.40;10.43;;;7.30;99.90;7.10;101770.00;;;;5014182;27;94226;-70
2021/12/15 02:21:24;;;;;;;18.77;9.57;;;7.40;99.90;7.10;101778.00;;;;5013615;27;93237;-70
2021/12/15 02:23:57;;;;;;;22.30;10.10;;;7.20;99.90;7.10;101787.00;;;;5011273;27;92842;-70
2021/12/15 02:26:36;;;;;;;21.97;11.00;;;7.20;99.90;7.00;101790.00;;;;5032336;27;92850;-69
2021/12/15 02:29:06;;;;;;;20.73;10.43;;;7.20;99.90;7.00;101789.00;;;;5013378;27;94770;-68
2021/12/15 02:39:19;;;;;;;17.40;9.83;;;7.10;99.90;7.00;101790.00;;;;5032839;27;93554;-69
2021/12/15 02:41:46;;;;;;;21.43;10.27;;;7.10;99.90;7.00;101792.00;;;;5028665;27;92895;-69
2021/12/15 02:44:16;;;;;;;22.27;9.77;;;7.10;99.90;7.00;101798.00;;;;5032568;27;93778;-69
2021/12/15 02:46:44;;;;;;;19.90;10.13;;;7.10;99.90;7.00;101794.00;;;;5033868;27;92966;-69
2021/12/15 02:49:15;;;;;;;16.77;10.40;;;7.10;99.90;7.00;101800.00;;;;5013729;27;92960;-68
2021/12/15 02:51:43;;;;;;;22.60;9.80;;;7.10;99.90;7.00;101796.00;;;;5029378;27;110144;-69
2021/12/15 02:54:12;;;;;;;22.47;11.27;;;7.10;99.90;7.00;101808.00;;;;5032230;27;92772;-69
2021/12/15 02:56:40;;;;;;;13.73;8.70;;;7.20;99.90;7.00;101801.00;;;;5032456;27;92757;-69
2021/12/15 02:59:07;;;;;;;21.50;10.07;;;7.20;99.90;7.00;101793.00;;;;5023447;27;94388;-68
2021/12/15 03:04:31;;;;;;;17.17;8.63;;;7.20;99.90;7.00;101796.00;;;;4991904;27;92974;-68
2021/12/15 03:07:11;;;;;;;24.17;10.03;;;7.10;99.90;7.00;101787.00;;;;5021594;27;92836;-67
2021/12/15 03:17:38;;;;;;;16.10;8.90;;;7.10;99.90;7.00;101812.00;;;;5030124;27;93054;-67
2021/12/15 03:20:06;;;;;;;21.03;9.97;;;7.10;99.90;6.90;101806.00;;;;5032706;27;93123;-66
2021/12/15 03:22:33;;;;;;;20.53;9.80;;;7.10;99.90;6.90;101811.00;;;;5023017;27;92734;-67
2021/12/15 03:24:59;;;;;;;20.47;10.53;;;7.10;99.90;7.00;101819.00;;;;5012138;27;92971;-66
2021/12/15 03:33:15;;;;;;;19.43;9.07;;;7.50;99.90;6.90;101826.00;;;;5023049;27;107927;-67
2021/12/15 03:36:00;;;;;;;18.50;9.07;;;7.10;99.90;6.90;101821.00;;;;5027786;27;93875;-66
2021/12/15 03:38:28;;;;;;;23.30;9.47;;;7.00;99.90;6.90;101824.00;;;;5026864;27;92781;-66
2021/12/15 03:40:55;;;;;;;20.33;10.57;;;7.00;99.90;6.90;101820.00;;;;5015471;27;93491;-67
2021/12/15 03:43:21;;;;;;;18.43;9.77;;;7.00;99.90;6.90;101824.00;;;;5014739;27;93080;-66
2021/12/15 03:46:01;;;;;;;24.17;10.00;;;7.00;99.90;6.90;101823.00;;;;5016034;27;92700;-66
2021/12/15 03:48:32;;;;;;;22.03;10.47;;;7.00;99.90;6.90;101812.00;;;;4995916;27;93119;-69
2021/12/15 03:51:00;;;;;;;17.33;9.67;;;7.00;99.90;6.90;101824.00;;;;5024200;27;93537;-67
2021/12/15 03:53:27;;;;;;;20.60;9.53;;;7.00;99.90;6.80;101815.00;;;;5035662;27;93438;-69
2021/12/15 03:55:54;;;;;;;21.97;9.83;;;6.90;99.90;6.80;101812.00;;;;5009144;27;93108;-69
2021/12/15 03:58:24;;;;;;;16.40;9.17;;;6.90;99.90;6.80;101813.00;;;;5023828;27;92840;-70
2021/12/15 04:01:01;;;;;;;13.83;8.37;;;7.00;99.90;6.80;101813.00;;;;5034243;27;94720;-70
2021/12/15 04:03:32;;;;;;;16.80;9.13;;;7.00;99.90;6.80;101812.00;;;;5036146;27;94117;-68
2021/12/15 04:06:12;;;;;;;24.07;10.10;;;7.00;99.90;6.80;101818.00;;;;5023510;27;92850;-67
2021/12/15 04:08:40;;;;;;;20.57;10.77;;;6.90;99.90;6.80;101812.00;;;;5032941;27;95085;-68
2021/12/15 04:11:10;;;;;;;23.47;10.97;;;6.90;99.90;6.80;101809.00;;;;5034368;27;93982;-67
2021/12/15 04:13:37;;;;;;;20.13;8.90;;;6.90;99.90;6.80;101810.00;;;;5034407;27;99704;-68
2021/12/15 04:16:07;;;;;;;15.23;8.80;;;5.50;99.90;6.80;101820.00;;;;5035766;27;93035;-68
2021/12/15 04:18:35;;;;;;;25.67;9.10;;;6.90;99.90;6.70;101814.00;;;;5034980;27;92302;-70
2021/12/15 04:21:04;;;;;;;14.53;8.53;;;6.90;99.90;6.80;101822.00;;;;5015408;27;92821;-69
2021/12/15 04:23:31;;;;;;;15.73;8.90;;;6.90;99.90;6.80;101823.00;;;;5035707;27;93322;-68
2021/12/15 04:26:00;;;;;;;22.27;10.30;;;6.90;99.90;6.80;101822.00;;;;5034789;27;93636;-70
2021/12/15 04:28:34;;;;;;;19.23;9.13;;;6.90;99.90;6.80;101827.00;;;;5033817;27;92941;-70
2021/12/15 04:31:07;;;;;;;18.87;9.43;;;6.90;99.90;6.70;101818.00;;;;5035014;27;93202;-68
2021/12/15 04:34:07;;;;;;;18.93;8.63;;;7.50;99.90;6.70;101816.00;;;;5033035;27;93307;-70
2021/12/15 04:36:41;;;;;;;17.83;8.90;;;6.90;99.90;6.70;101830.00;;;;4996579;27;92842;-69
2021/12/15 04:39:13;;;;;;;18.00;9.37;;;6.80;99.90;6.70;101832.00;;;;4995689;27;92844;-69
2021/12/15 04:41:44;;;;;;;15.93;7.87;;;6.80;99.90;6.70;101829.00;;;;5013779;27;93622;-69
2021/12/15 04:44:10;;;;;;;18.17;9.27;;;6.80;99.90;6.60;101829.00;;;;5020561;27;92788;-68
2021/12/15 04:46:40;;;;;;;13.97;8.50;;;6.80;99.90;6.60;101823.00;;;;5035016;27;93152;-69
2021/12/15 04:49:10;;;;;;;16.90;9.07;;;6.80;99.90;6.60;101819.00;;;;5014424;27;94489;-69
2021/12/15 04:51:38;;;;;;;19.87;9.53;;;6.80;99.90;6.60;101825.00;;;;5026718;27;107251;-69
2021/12/15 04:54:05;;;;;;;15.63;7.70;;;6.80;99.90;6.60;101824.00;;;;4995584;27;94158;-69
2021/12/15 04:56:31;;;;;;;15.73;8.77;;;6.80;99.90;6.70;101826.00;;;;5014813;27;93077;-67
2021/12/15 04:58:56;;;;;;;14.43;7.60;;;6.80;99.90;6.60;101829.00;;;;5013094;27;108905;-69
2021/12/15 05:01:25;;;;;;;14.97;7.03;;;6.80;99.90;6.70;101834.00;;;;4994718;27;110348;-68
2021/12/15 05:03:51;;;;;;;14.57;8.30;;;6.70;99.90;6.70;101843.00;;;;5014519;27;100299;-67
2021/12/15 05:06:17;;;;;;;14.97;7.87;;;6.80;99.90;6.70;101843.00;;;;5012387;27;110214;-66
2021/12/15 05:08:43;;;;;;;15.93;7.70;;;6.80;99.90;6.70;101847.00;;;;5015173;27;109783;-66
2021/12/15 05:11:11;;;;;;;12.50;7.73;;;6.80;99.90;6.60;101844.00;;;;5012668;27;120781;-68
2021/12/15 05:13:37;;;;;;;16.27;8.60;;;6.80;99.90;6.60;101837.00;;;;5013932;27;93665;-67
2021/12/15 05:16:05;;;;;;;13.63;8.17;;;6.80;99.90;6.60;101851.00;;;;5013019;27;99296;-67
2021/12/15 05:18:31;;;;;;;19.37;8.80;;;6.80;99.90;6.60;101845.00;;;;5014165;27;92828;-68
2021/12/15 05:20:59;;;;;;;10.23;6.50;;;6.70;99.90;6.60;101850.00;;;;5008914;27;102017;-67
2021/12/15 05:23:31;;;;;;;13.60;7.63;;;6.80;99.90;6.60;101853.00;;;;5033246;27;94149;-69
2021/12/15 05:25:59;;;;;;;15.13;7.97;;;6.70;99.90;6.60;101864.00;;;;4998859;27;93016;-69
2021/12/15 05:28:28;;;;;;;17.00;8.67;;;6.80;99.90;6.60;101854.00;;;;5033837;27;92912;-68
2021/12/15 05:30:56;;;;;;;15.43;7.30;;;6.80;99.90;6.70;101854.00;;;;5020289;27;110040;-68
2021/12/15 05:33:22;;;;;;;13.07;6.90;;;6.70;99.90;6.70;101857.00;;;;5013984;27;93874;-68
2021/12/15 05:35:47;;;;;;;14.07;8.13;;;6.80;99.90;6.70;101854.00;;;;5014079;27;98510;-67
2021/12/15 05:38:14;;;;;;;11.97;7.47;;;6.80;99.90;6.70;101850.00;;;;5031624;27;95979;-68
2021/12/15 05:40:40;;;;;;;10.97;7.17;;;6.80;99.90;6.70;101861.00;;;;5033481;27;96141;-68
2021/12/15 05:43:07;;;;;;;15.63;7.30;;;6.70;99.90;6.70;101847.00;;;;5033657;27;94151;-67
2021/12/15 05:45:36;;;;;;;14.27;7.13;;;6.80;99.90;6.70;101862.00;;;;5034174;27;93043;-68
2021/12/15 05:48:05;;;;;;;11.90;6.73;;;6.80;99.90;6.70;101845.00;;;;5020778;27;92792;-67
2021/12/15 05:50:31;;;;;;;12.30;6.40;;;6.80;99.90;6.70;101858.00;;;;5020093;27;93553;-67
2021/12/15 05:53:00;;;;;;;9.87;5.57;;;6.90;99.90;6.70;101851.00;;;;5033019;27;92971;-67
2021/12/15 05:55:26;;;;;;;9.63;6.73;;;6.80;99.90;6.70;101849.00;;;;5028967;27;92866;-67
2021/12/15 05:57:52;;;;;;;13.47;5.83;;;6.80;99.90;6.70;101851.00;;;;5013712;27;96158;-67
2021/12/15 06:00:25;;;;;;;9.60;5.37;;;6.90;99.90;6.70;101858.00;;;;5012976;27;108191;-68
2021/12/15 06:02:53;;;;;;;8.00;5.73;;;6.90;99.90;6.70;101858.00;;;;5015069;27;92754;-66
2021/12/15 06:05:19;;;;;;;9.33;6.07;;;6.90;99.90;6.70;101861.00;;;;5014158;27;93689;-66
2021/12/15 06:07:45;;;;;;;11.10;6.20;;;6.90;99.90;6.80;101871.00;;;;5013640;27;92904;-68
2021/12/15 06:10:16;;;;;;;8.80;5.40;;;6.90;99.90;6.80;101859.00;;;;5012605;27;104557;-67
2021/12/15 06:12:43;;;;;;;9.50;5.73;;;6.90;99.90;6.80;101862.00;;;;4995267;27;93176;-67
2021/12/15 06:15:09;;;;;;;8.40;5.53;;;6.90;99.90;6.80;101865.00;;;;4994761;27;92944;-66
2021/12/15 06:17:35;;;;;;;10.77;5.63;;;6.90;99.90;6.80;101878.00;;;;5013065;27;92859;-65
2021/12/15 06:20:03;;;;;;;12.73;6.07;;;6.90;99.90;6.80;101865.00;;;;5011477;27;122773;-66
2021/12/15 06:22:31;;;;;;;8.70;5.17;;;7.00;99.90;6.80;101878.00;;;;5013082;27;93627;-66
2021/12/15 06:24:57;;;;;;;8.00;4.77;;;6.90;99.90;6.80;101876.00;;;;5013100;27;92983;-66
2021/12/15 06:27:24;;;;;;;9.67;5.70;;;7.00;99.90;6.80;101884.00;;;;5012188;27;107941;-66
2021/12/15 06:29:52;;;;;;;8.57;5.00;;;6.90;99.90;6.90;101892.00;;;;5018310;27;94397;-66
2021/12/15 06:32:19;;;;;;;7.57;4.90;;;7.00;99.90;6.90;101891.00;;;;5030299;27;93822;-67
2021/12/15 06:34:45;;;;;;;7.77;4.97;;;7.00;99.90;6.90;101884.00;;;;5021252;27;92989;-67
2021/12/15 06:37:11;;;;;;;11.37;5.00;;;7.00;99.90;6.90;101894.00;;;;5012714;27;108436;-68
2021/12/15 06:39:37;;;;;;;8.80;5.17;;;7.00;99.90;6.90;101893.00;;;;5008469;27;122127;-68
2021/12/15 06:42:04;;;;;;;8.87;5.00;;;7.00;99.90;6.90;101899.00;;;;5009929;27;122456;-69
2021/12/15 06:44:30;;;;;;;9.60;5.77;;;7.00;99.90;6.90;101898.00;;;;4990724;27;93043;-67
2021/12/15 06:47:21;;;;;;;6.50;4.67;;;7.00;99.90;6.90;101901.00;;;;4991800;27;92734;-67
2021/12/15 07:00:33;;;;;;;7.63;5.03;;;7.00;99.90;6.80;101902.00;;;;5016332;27;112494;-66
2021/12/15 07:03:00;;;;;;;9.90;5.47;;;6.90;99.90;6.80;101908.00;;;;5008859;27;93040;-68
2021/12/15 07:05:29;;;;;;;10.77;5.03;;;7.00;99.90;6.90;101906.00;;;;5010014;27;92876;-69
2021/12/15 07:07:56;;;;;;;9.00;5.47;;;7.00;99.90;6.90;101913.00;;;;5016212;27;92823;-69
2021/12/15 07:10:28;;;;;;;10.47;4.40;;;7.00;99.90;6.90;101920.00;;;;5006556;27;96367;-69
2021/12/15 07:12:54;;;;;;;6.30;4.33;;;7.00;99.90;6.90;101918.00;;;;5015549;27;93002;-69
2021/12/15 07:15:21;;;;;;;12.13;5.67;;;7.00;99.90;6.90;101930.00;;;;5013433;27;96331;-69
2021/12/15 07:17:51;;;;;;;8.67;4.93;;;7.00;99.90;6.90;101939.00;;;;5020267;27;92977;-69
2021/12/15 07:20:38;;;;;;;10.83;4.57;;;7.10;99.90;6.90;101929.00;;;;4987015;27;96106;-67
2021/12/15 07:23:18;;;;;;;10.87;5.13;;;7.10;99.90;6.90;101939.00;;;;4992647;27;95657;-67
2021/12/15 07:25:47;;;;;;;9.03;4.27;;;7.10;99.90;6.90;101923.00;;;;5015509;27;97857;-68
2021/12/15 07:28:23;;;;;;;8.70;4.80;;;7.10;99.90;6.90;101932.00;;;;5024563;27;93158;-67
2021/12/15 07:30:50;;;;;;;6.67;5.03;;;7.10;99.90;6.90;101928.00;;;;5011702;27;92851;-67
2021/12/15 07:33:16;;;;;;;6.77;4.47;;;7.10;99.90;6.90;101917.00;;;;4993949;27;93068;-69
2021/12/15 07:35:42;;;;;;;6.70;4.37;;;7.10;99.90;6.90;101925.00;;;;5018509;27;92863;-68
2021/12/15 07:38:09;;;;;;;7.43;4.57;;;7.10;99.90;6.90;101924.00;;;;5014215;27;92147;-68
2021/12/15 07:40:37;;;;;;;11.53;4.77;;;7.00;99.90;6.90;101922.00;;;;5011808;27;109091;-68
2021/12/15 07:43:09;;;;;;;5.80;3.73;;;7.10;99.90;6.90;101929.00;;;;5017838;27;95497;-68
2021/12/15 07:45:44;;;;;;;7.33;3.93;;;7.10;99.90;6.90;101918.00;;;;5013311;27;93858;-66
2021/12/15 07:48:12;;;;;;;10.37;4.53;;;7.00;99.90;6.90;101918.00;;;;4995694;27;92952;-66
2021/12/15 07:50:43;;;;;;;8.53;4.47;;;7.10;99.90;6.90;101921.00;;;;5011512;27;97454;-69
2021/12/15 07:53:09;;;;;;;8.80;4.70;;;7.10;99.90;6.90;101921.00;;;;5012115;27;93389;-68
2021/12/15 07:55:36;;;;;;;7.80;5.47;;;7.10;99.90;7.00;101924.00;;;;4997867;27;92898;-67
2021/12/15 07:58:06;;;;;;;6.60;4.50;;;7.10;99.90;7.00;101924.00;;;;5011476;27;92993;-66
2021/12/15 08:00:32;;;;;;;6.07;4.67;;;7.10;99.90;7.00;101923.00;;;;5015948;27;102864;-66
2021/12/15 08:02:58;;;;;;;9.97;4.73;;;7.10;99.90;7.00;101925.00;;;;5014051;27;99314;-68
2021/12/15 08:05:25;;;;;;;6.90;4.33;;;7.10;99.90;7.00;101930.00;;;;5013559;27;93214;-67
2021/12/15 08:07:51;;;;;;;11.57;5.27;;;7.20;99.90;7.10;101933.00;;;;5004614;27;93022;-67
2021/12/15 08:10:17;;;;;;;9.53;4.47;;;7.20;99.90;7.10;101920.00;;;;5029662;27;109516;-67
2021/12/15 08:12:46;;;;;;;10.00;4.00;;;7.10;99.90;7.10;101930.00;;;;5023121;27;94564;-66
2021/12/15 08:15:13;;;;;;;8.03;4.90;;;7.20;99.90;7.10;101931.00;;;;5013970;27;92941;-68
2021/12/15 08:17:46;;;;;;;9.10;4.90;;;7.40;99.90;7.10;101927.00;;;;5012969;27;92765;-68
2021/12/15 08:20:12;;;;;;;10.27;5.33;;;7.20;99.90;7.20;101935.00;;;;5012895;27;93753;-67
2021/12/15 08:22:39;;;;;;;7.37;3.70;;;7.30;99.90;7.20;101940.00;;;;5030632;27;94728;-68
2021/12/15 08:25:12;;;;;;;7.73;3.80;;;7.30;99.90;7.20;101941.00;;;;5013122;27;92931;-67
2021/12/15 08:27:38;;;;;;;5.83;3.33;;;7.30;99.90;7.20;101941.00;;;;5023137;27;92010;-66
2021/12/15 08:30:09;;;;;;;6.37;4.03;;;7.30;99.90;7.20;101934.00;;;;5018591;27;122155;-66
2021/12/15 08:32:35;;;;;;;4.87;3.83;;;7.40;99.90;7.20;101935.00;;;;5011621;27;93448;-67
2021/12/15 08:35:02;;;;;;;9.57;4.23;;;7.30;99.90;7.20;101937.00;;;;5010770;27;93975;-66
2021/12/15 08:37:28;;;;;;;9.33;4.47;;;7.40;99.90;7.20;101941.00;;;;5011735;27;92892;-69
2021/12/15 08:39:53;;;;;;;5.17;3.97;;;7.40;99.90;7.30;101939.00;;;;5020956;27;111110;-69
2021/12/15 08:42:19;;;;;;;5.50;4.03;;;7.40;99.90;7.30;101947.00;;;;5020441;27;122839;-68
2021/12/15 08:44:46;;;;;;;6.20;4.07;;;7.40;99.90;7.30;101932.00;;;;5014901;27;92786;-68
2021/12/15 08:47:12;;;;;;;6.80;3.73;;;7.40;99.90;7.30;101939.00;;;;5011724;27;93174;-68
2021/12/15 08:49:38;;;;;;;9.57;4.93;;;7.40;99.90;7.30;101934.00;;;;5010761;27;105858;-67
2021/12/15 08:52:06;;;;;;;6.77;4.40;;;7.50;99.90;7.30;101932.00;;;;5012487;27;101573;-68
2021/12/15 08:54:32;;;;;;;4.97;3.63;;;6.90;99.90;7.40;101945.00;;;;5011931;27;92886;-68
2021/12/15 08:56:58;;;;;;;5.27;4.00;;;7.50;99.90;7.40;101935.00;;;;5011239;27;93174;-68
2021/12/15 08:59:25;;;;;;;5.43;3.60;;;7.50;99.90;7.40;101942.00;;;;5008884;27;123022;-68
2021/12/15 09:01:52;;;;;;;4.93;3.57;;;7.50;99.90;7.50;101941.00;;;;5010365;27;112018;-68
2021/12/15 09:04:17;;;;;;;7.90;4.30;;;7.60;99.90;7.50;101945.00;;;;5015001;27;92694;-69
2021/12/15 09:06:45;;;;;;;7.17;4.63;;;7.60;99.90;7.60;101950.00;;;;5011149;27;109484;-67
2021/12/15 09:09:14;;;;;;;5.77;3.87;;;7.70;99.90;7.60;101945.00;;;;5021040;27;105212;-67
2021/12/15 09:11:41;;;;;;;6.47;4.53;;;7.60;99.90;7.70;101951.00;;;;5010667;27;93536;-69
2021/12/15 09:14:10;;;;;;;6.10;3.70;;;7.70;99.90;7.70;101947.00;;;;5010774;27;93054;-69
2021/12/15 09:16:36;;;;;;;7.80;4.00;;;7.80;99.90;7.70;101940.00;;;;5011801;27;92086;-67
2021/12/15 09:19:03;;;;;;;5.77;3.93;;;7.80;99.90;7.80;101936.00;;;;5011272;27;93852;-70
2021/12/15 09:21:32;;;;;;;6.10;3.70;;;7.90;99.90;7.80;101940.00;;;;5018867;27;92821;-67
2021/12/15 09:24:00;;;;;;;5.70;3.23;;;7.90;99.90;7.90;101941.00;;;;5012559;27;93992;-67
2021/12/15 09:26:27;;;;;;;7.77;4.40;;;8.00;99.90;7.90;101955.00;;;;5013649;27;92701;-68
2021/12/15 09:28:53;;;;;;;9.17;3.90;;;8.00;99.90;7.90;101944.00;;;;4999222;27;103910;-69
2021/12/15 09:31:21;;;;;;;7.20;3.43;;;9.00;99.90;8.00;101948.00;;;;5010656;27;93071;-68
2021/12/15 09:33:50;;;;;;;10.83;5.00;;;8.00;99.90;8.00;101946.00;;;;5011647;27;92956;-68
2021/12/15 09:36:19;;;;;;;9.30;4.03;;;8.10;99.90;8.10;101942.00;;;;5015895;27;92690;-68
2021/12/15 09:38:51;;;;;;;7.57;4.17;;;8.10;99.90;8.10;101943.00;;;;5015065;27;108999;-68
2021/12/15 09:41:19;;;;;;;5.93;3.63;;;8.20;99.90;8.20;101950.00;;;;4992321;27;92163;-68
2021/12/15 09:43:47;;;;;;;5.77;3.63;;;8.10;99.90;8.20;101949.00;;;;5011240;27;93554;-71
2021/12/15 09:46:26;;;;;;;8.23;3.30;;;8.20;99.90;8.20;101938.00;;;;5022160;27;95042;-68
2021/12/15 09:57:20;;;;;;;4.17;3.53;;;8.50;99.90;8.40;101955.00;;;;5016795;27;92775;-69
2021/12/15 10:02:43;;;;;;;8.87;4.20;;;8.50;99.90;8.40;101954.00;;;;5008441;27;92917;-69
2021/12/15 10:05:27;;;;;;;3.20;2.87;;;8.50;99.90;8.40;101962.00;;;;4993827;27;93224;-70
2021/12/15 10:10:47;;;;;;;5.37;3.20;;;8.50;99.90;8.50;101965.00;;;;4992453;27;92752;-69
2021/12/15 10:19:40;;;;;;;7.63;3.40;;;8.60;99.90;8.50;101948.00;;;;5009071;27;92889;-68
2021/12/15 10:22:37;;;;;;;5.83;3.07;;;8.60;99.90;8.50;101957.00;;;;5005086;27;93334;-67
2021/12/15 10:25:16;;;;;;;6.07;3.03;;;8.60;99.90;8.50;101950.00;;;;5010293;27;92885;-68
2021/12/15 10:27:59;;;;;;;5.60;3.57;;;8.60;99.90;8.50;101951.00;;;;5010772;27;93165;-69
2021/12/15 10:30:41;;;;;;;7.17;3.90;;;8.60;99.90;8.60;101954.00;;;;5011049;27;92873;-69
2021/12/15 10:33:24;;;;;;;3.80;2.50;;;8.70;99.90;8.60;101957.00;;;;5009439;27;93609;-68
2021/12/15 10:35:59;;;;;;;9.03;3.87;;;8.70;99.90;8.60;101951.00;;;;5013543;27;92777;-68
2021/12/15 10:38:37;;;;;;;6.00;3.57;;;8.50;99.90;8.60;101954.00;;;;4986951;27;92896;-69
2021/12/15 10:41:05;;;;;;;4.77;3.03;;;8.70;99.90;8.60;101954.00;;;;5017966;27;92795;-69
2021/12/15 10:43:53;;;;;;;3.03;2.73;;;8.70;99.90;8.70;101948.00;;;;5009079;27;94763;-69
2021/12/15 10:46:25;;;;;;;4.87;3.07;;;8.70;99.90;8.70;101948.00;;;;5009007;27;105379;-69
2021/12/15 10:49:12;;;;;;;5.77;3.60;;;8.70;99.90;8.60;101939.00;;;;4990845;27;92871;-68
2021/12/15 10:51:47;;;;;;;3.43;2.57;;;8.70;99.90;8.60;101941.00;;;;5010119;27;92840;-70
2021/12/15 10:54:37;;;;;;;4.53;3.03;;;8.80;99.90;8.60;101954.00;;;;5014017;27;92832;-68
2021/12/15 10:57:20;;;;;;;3.43;2.53;;;8.80;99.90;8.60;101944.00;;;;5014881;27;93907;-69
2021/12/15 10:59:51;;;;;;;5.40;2.97;;;8.70;99.90;8.60;101939.00;;;;5001870;27;93071;-69
2021/12/15 11:02:27;;;;;;;3.43;3.13;;;8.80;99.90;8.60;101940.00;;;;5010376;27;92304;-69
2021/12/15 11:05:05;;;;;;;3.43;2.83;;;8.70;99.90;8.50;101928.00;;;;5006453;27;93988;-69
2021/12/15 11:07:48;;;;;;;4.57;3.03;;;8.70;99.90;8.50;101937.00;;;;5022245;27;93008;-68
2021/12/15 11:10:27;;;;;;;5.03;3.30;;;8.60;99.90;8.50;101938.00;;;;5009199;27;94138;-68
2021/12/15 11:13:00;;;;;;;5.03;2.73;;;8.60;99.90;8.50;101943.00;;;;5012071;27;92639;-69
2021/12/15 11:15:32;;;;;;;5.00;2.83;;;8.60;99.90;8.50;101936.00;;;;5000590;27;93763;-69
2021/12/15 11:18:03;;;;;;;6.67;3.23;;;8.60;99.90;8.40;101948.00;;;;5006700;27;93137;-68
2021/12/15 11:20:34;;;;;;;3.80;2.30;;;8.60;99.90;8.40;101945.00;;;;5009840;27;92923;-69
2021/12/15 11:23:08;;;;;;;6.23;3.10;;;8.60;99.90;8.40;101950.00;;;;5009562;27;92836;-68
2021/12/15 11:25:54;;;;;;;5.93;2.63;;;8.60;99.90;8.40;101952.00;;;;5011365;27;93266;-69
2021/12/15 11:28:39;;;;;;;4.07;2.83;;;8.50;99.90;8.40;101946.00;;;;5029234;27;92696;-68
2021/12/15 11:31:21;;;;;;;4.27;2.60;;;8.60;99.90;8.40;101943.00;;;;5010822;27;92886;-68
2021/12/15 11:33:52;;;;;;;4.67;2.87;;;8.50;99.90;8.50;101947.00;;;;5029012;27;93194;-68
2021/12/15 11:36:35;;;;;;;4.57;3.30;;;8.60;99.90;8.40;101935.00;;;;5008080;27;109895;-68
2021/12/15 11:39:11;;;;;;;5.53;3.33;;;8.60;99.90;8.40;101942.00;;;;5009635;27;110460;-68
2021/12/15 11:41:54;;;;;;;5.77;3.20;;;8.60;99.90;8.40;101939.00;;;;5013818;27;93107;-70
2021/12/15 11:44:25;;;;;;;5.30;3.37;;;8.50;99.90;8.50;101948.00;;;;5013187;27;96030;-68
2021/12/15 11:47:05;;;;;;;4.90;3.00;;;8.60;99.90;8.40;101942.00;;;;5010780;27;96426;-70
2021/12/15 11:49:40;;;;;;;5.67;3.30;;;8.60;99.90;8.40;101947.00;;;;5008793;27;93041;-68
2021/12/15 11:52:14;;;;;;;5.37;3.37;;;8.50;99.90;8.30;101946.00;;;;5007881;27;92952;-68
2021/12/15 11:54:50;;;;;;;6.40;3.83;;;8.50;99.90;8.30;101940.00;;;;4996366;27;92460;-70
2021/12/15 11:57:29;;;;;;;8.80;3.40;;;8.40;99.90;8.20;101945.00;;;;5016138;27;95992;-68
2021/12/15 12:00:07;;;;;;;5.50;2.90;;;8.40;99.90;8.10;101938.00;;;;5017286;27;93283;-68
2021/12/15 12:02:41;;;;;;;2.97;2.60;;;8.20;99.90;8.10;101932.00;;;;5012070;27;93931;-68
2021/12/15 12:05:18;;;;;;;5.13;3.30;;;8.20;99.90;8.10;101938.00;;;;4987317;27;92969;-69
2021/12/15 12:07:54;;;;;;;5.13;3.37;;;8.30;99.90;8.10;101940.00;;;;5020824;27;107472;-69
2021/12/15 12:10:43;;;;;;;3.97;2.70;;;8.30;99.90;8.20;101932.00;;;;4116751;27;10000122;-69
2021/12/15 12:13:20;;;;;;;6.00;3.57;;;8.30;99.90;8.20;101929.00;;;;5024337;27;99789;-68
2021/12/15 12:15:49;;;;;;;5.23;4.10;;;8.30;99.90;8.20;101936.00;;;;5031055;27;93683;-69